Main page
METAR-TAF:

METAR-TAF

Airports :

Le Mans, France

latitude: 47-56N, longitude: 000-12E, elevation: 59 m

Current weather observation

The report was made 12 minutes ago, at 09:30 UTC
Wind 3 kt from variable directions
Temperature 13°C
Humidity 82%
Pressure 1008 hPa
Visibility: 5000 m
Overcast at a height of 1500 ft
mist

METAR: LFRM 190930Z AUTO VRB03KT 5000 BR OVC015 13/10 Q1008 TEMPO SHRA SCT030CB

Time: 11:42 (09:42 UTC)

Forecast

The report was made 22 minutes ago, at 09:20 UTC
Forecast valid from 19 at 09 UTC to 20 at 06 UTC
Wind 5 kt from the North/Northwest
Visibility 10 km or more
no clouds below 1500 m and no cumulonimbus
Temporary
from 19 at 09 UTC to 19 at 11 UTC
Visibility: 4900 m
Broken clouds at a height of 1400 ft
mist
Temporary
from 19 at 11 UTC to 19 at 20 UTC
Visibility: 4000 m
Scattered clouds at a height of 3000 ft, Cumulonimbus.
rain showers

TAF: LFRM 190920Z 1909/2006 34005KT CAVOK TEMPO 1909/1911 4900 BR BKN014 TEMPO 1911/1920 4000 SHRA SCT030CB

Weather observations and forecasts of more than 4000 airports (METAR and TAF reports).

The available stations are represented by yellow and red dots on the map.

Hover mouse over dot to see the name of the station.

Then click to see weather observations and forecasts.

To change the map : click on the green buttons with a black cross to zoom in, on the green button with a dash to zoom out, or on the green arrows for adjacent maps.


METAR-TAF: